Terminal Aerodrome Forecast
Issued by NWS Louisville, KY

Home | Current Version | Previous Version | Graphics & Text | Print | Product List | Glossary On
Versions: 1 2 3 4 5 6 7 8 9 10 11 12 13 14 15
000
FTUS43 KLMK 270520
TAFSDF
TAF
KSDF 270520Z 2706/2812 22007KT P6SM BKN040
      TEMPO 2708/2711 BKN015
     FM271100 23007KT P6SM VCSH BKN015
     FM271700 24007KT P6SM VCSH SCT025 BKN035
     FM272000 24008KT P6SM VCTS SCT040CB BKN060
     FM280000 VRB05KT P6SM SCT030 BKN250
     FM280600 18006KT P6SM VCSH SCT025 BKN060=

USA.gov is the U.S. government's official web portal to all federal, state and local government web resources and services.